Kezdőlap
METAR-TAF:

METAR-TAF

Repülőterek :

Ushuaia, Argentína

földrajzi szélesség: 54-48S, földrajzi hosszúság: 068-19W, magasság: 16 m

Jelenlegi meteorológiai megfigyelések

A jelentés 39 perccel ezelõtt készült, 15:00 UTC
Szélcsend
Hőmérséklet 4°C
Páratartalom 48%
Légköri nyomás 1008 hPa
Látótávolság 10 km, vagy több
felhőtlen 1500 m magasságban, és nincs gomolyfelhõ

METAR: SAWH 191500Z 00000KT CAVOK 04/M06 Q1008

Idő: 12:39 (15:39 UTC)

Előrejelzés

A jelentés 4 órával és 39 perccel ezelõtt készült, 11:00 UTC
Az előrejelzés 19-én 12 óra UTC és 20-én 12 óra UTC között érvényes
Különbözõ irányokból fújó szél 5 kt
Látótávolság 10 km, vagy több
Szórványos felhőzet 3000 lábon
Szórványos felhőzet 9000 lábon
19-én 18 óra UTC és 19-én 20 óra UTC között fokozatosan kialakuló
Délnyugati szél 10 kt
Szakadozott felhőzet 3000 lábon

TAF: SAWH 191100Z 1912/2012 VRB05KT 9999 SCT030 SCT090 TX06/1918Z TNM01/2011Z BECMG 1918/1920 23010KT BKN030

Meteorológiai megfigyelések és előrejelzések több, mint 4000 repülőtéren (METAR és TAF jelentéseket).

A térképen piros és sárga pontok jelzik az elérhető meteorológiai állomásokat.

Mozgassa az egeret a pont fölött, hogy megjelenjen az állomás neve.

Azután kattintson az időjárási megfigyelések és előrejelzések megtekintéséhez.

A térkép megváltoztatása: kattintson a fekete keresztel jelölt zöld gombra ráközelítéshez, a vonallal jelölt zöld gombra távolításhoz, vagy a zöld nyilakra a szomszédos térképek eléréséhez.


METAR-TAF: